Terminal Aerodrome Forecast
Issued by NWS

Home | Current Version | Previous Version | Graphics & Text | Print | Product List | Glossary On
Versions: 1 2 3 4 5 6 7 8 9 10 11 12 13
881
FTUS43 KMPX 202151 AAB
TAFAXN
TAF AMD
KAXN 202151Z 2022/2118 35011KT P6SM SCT025 OVC035
     FM210300 33005KT P6SM FEW040 SCT080
      TEMPO 2109/2113 3SM BR
     FM211400 31006KT P6SM SKC=

USA.gov is the U.S. government's official web portal to all federal, state and local government web resources and services.